x

Edisto - 41 Nm Southeast Of Charleston, Sc (41004) Wave Buoy

11:50pm - Sun 19th Feb 2017 All times are EST. -5 hours from GMT.

  • Sig Wave height 1.3ft
  • Swell Direction
  • Peak Period 10s
  • Average Period 4s
  • Wind
    9mph, 11mph gusts
  • Sea Temp 69°f
  • Air Temp 67°f
  • Sea Pressure 1018mb
  • Edisto - 41 Nm Southeast Of Charleston, Sc
  • Edisto - 41 Nm Southeast Of Charleston, Sc

More Historic Weather Station data

Upgrade to MSW Pro to gain access to the past 30 days of data for over 8000 Wavebouys and Weather Stations around the globe.

Join Pro

Comparision Forecast

View Surf forecast
   
Sun 02/19 11:50pm 1.3ft 10s 4s 9 11 mph 1018mb 69f 67f
10:50pm 1.3ft 6s 4s 9 11 mph 1018.3mb 69f 66f
9:50pm 1.3ft 6s 4s 9 11 mph 1018.1mb 69f 66f
8:50pm 1.6ft 6s 4s 11 13 mph 1017.4mb 69f 67f
7:50pm 1.6ft 6s 4s 11 13 mph 1016.8mb 69f 66f
6:50pm 1.6ft 6s 4s 13
mph
1016mb 69f 67f
5:50pm 2ft 7s 4s 13 16 mph 1015.4mb 69f 67f
4:50pm 2ft 6s 4s 13 16 mph 1015.1mb 69f 66f
3:50pm 2ft 7s 4s 13 16 mph 1015mb 69f 66f
2:50pm 2ft 6s 4s 13 16 mph 1014.9mb 69f 64f
1:50pm 2.5ft 5s 4s 13 16 mph 1015.2mb 68f 63f
12:50pm 2ft 3s 4s 11 16 mph 1015.5mb 68f 62f
11:50am 2ft 6s 4s 13 16 mph 1016.2mb 68f 61f
10:50am 2.5ft 5s 4s 11 13 mph 1016.3mb 68f 61f
9:50am 2.5ft 3s 4s 13 18 mph 1016.6mb 68f 61f
8:50am 2.5ft 3s 4s 16 18 mph 1016.1mb 68f 61f
7:50am 2.5ft 6s 4s 20 22 mph 1015.3mb 68f 61f
6:50am 2.5ft 6s 4s 16 18 mph 1014.7mb 68f 61f
5:50am 2.5ft 6s 4s 18 20 mph 1013.9mb 69f 61f
4:50am 3ft 6s 4s 13 16 mph 1013.7mb 69f 61f
3:50am 3ft 6s 4s 13 16 mph 1013.4mb 69f 62f
2:50am 2.5ft 5s 4s 18 20 mph 1012.4mb 69f 62f
1:50am 2.5ft 5s 5s 13 16 mph 1012.8mb 69f 65f
12:50am 2ft 6s 5s 11 13 mph 1013.6mb 69f 65f
Sat 02/18 11:50pm 2ft 5s 4s 11 13 mph 1014.4mb 69f 65f
10:50pm 2.5ft 5s 4s 13 16 mph 1014.7mb 69f 67f
9:50pm 2ft 5s 4s 13
mph
1014.8mb 69f 68f
8:50pm 2ft 5s 4s 13 16 mph 1014.3mb 69f 69f
7:50pm 2ft 9s 5s 11 13 mph 1013.8mb 69f 69f
6:50pm 2.5ft 9s 4s 7 9 mph 1013.6mb 69f 66f
5:50pm 2ft 5s 4s 13 16 mph 1013.9mb 69f 67f
4:50pm 2.5ft 9s 4s 13 18 mph 1014.6mb 69f 66f
3:50pm 2.5ft 3s 4s 18 22 mph 1015.2mb 69f 66f
2:50pm 2ft 10s 4s 18 22 mph 1015.3mb 69f 67f
1:50pm 2ft 5s 4s 13 16 mph 1015.3mb 69f 67f
12:50pm 1.6ft 4s 4s 13 16 mph 1015.9mb 69f 67f
11:50am 2ft 5s 4s 9 11 mph 1016.3mb 69f 67f
10:50am 2.5ft 5s 4s 9 11 mph 1016.7mb 69f 66f
9:50am 2.5ft 5s 4s 11 13 mph 1017.1mb 69f 66f
8:50am 2.5ft 5s 4s 13 16 mph 1017.2mb 69f 65f
7:50am 2.5ft 5s 4s 11 13 mph 1016.7mb 69f 64f
6:50am 2.5ft 5s 4s 13 18 mph 1016.4mb 69f 64f
5:50am 2.5ft 4s 4s 18 20 mph 1016.2mb 69f 64f
4:50am 2.5ft 5s 4s 18 20 mph 1015.9mb 69f 64f
3:50am 2.5ft 4s 4s 16 18 mph 1015.3mb 69f 64f
2:50am 2.5ft 5s 4s 18 20 mph 1015.4mb 69f 64f
1:50am 3ft 5s 4s 16 20 mph 1015.9mb 69f 65f
12:50am 3ft 4s 4s 20 25 mph 1015.8mb 70f 65f
Fri 02/17 11:50pm 3.5ft 5s 4s 18 20 mph 1015.7mb 70f 66f
10:50pm 3.5ft 5s 4s 18 22 mph 1015.6mb 70f 65f
9:50pm 3.5ft 5s 4s 20 22 mph 1015.8mb 70f 65f
8:50pm 3.5ft 5s 4s 20 22 mph 1015.3mb 70f 64f
7:50pm 3.5ft 5s 4s 22 27 mph 1015.4mb 70f 64f
6:50pm 3.5ft 5s 4s 20 25 mph 1015.5mb 70f 64f
5:50pm 3.5ft 5s 4s 20 25 mph 1015.4mb 70f 63f
4:50pm 3.5ft 9s 4s 20 22 mph 1015.3mb 70f 63f
3:50pm 2.5ft 9s 4s 20 22 mph 1015.4mb 70f 62f
2:50pm 2.5ft 9s 4s 16 20 mph 1015.8mb 70f 61f
1:50pm 2.5ft 5s 5s 11 13 mph 1016.1mb 69f 60f
12:50pm 2.5ft 9s 5s 11 13 mph 1017.2mb 69f 60f
11:50am 2.5ft 5s 5s 7 9 mph 1017.8mb 68f 60f
10:50am 3ft 6s 5s 9
mph
1018.2mb 67f 59f
9:50am 3ft 6s 5s 11 16 mph 1018.1mb 65f 59f
8:50am 3ft 6s 4s 16 18 mph 1018mb 65f 58f
7:50am 3ft 6s 4s 13 18 mph 1017.7mb 65f 58f
6:50am 3ft 5s 4s 13 16 mph 1016.7mb 64f 58f
5:50am 3ft 5s 4s 16 18 mph 1016.3mb 64f 58f
4:50am 3ft 5s 4s 18 20 mph 1015.7mb 64f 59f
3:50am 3ft 5s 4s 18 20 mph 1015.4mb 65f 60f
2:50am 3ft 5s 4s 16 18 mph 1015.3mb 65f 60f
1:50am 3ft 5s 4s 18 20 mph 1015.7mb 65f 61f
12:50am 3ft 5s 4s 16 20 mph 1015.2mb 65f 61f
Thu 02/16 11:50pm 3ft 5s 4s 18 20 mph 1015mb 65f 62f
10:50pm 3.5ft 5s 4s 16 20 mph 1014.8mb 65f 62f
9:50pm 3.5ft 5s 4s 16 20 mph 1015.1mb 65f 62f
8:50pm 4ft 5s 4s 18 22 mph 1014.6mb 65f 62f
7:50pm 4ft 5s 4s 20 25 mph 1013.9mb 65f 61f
6:50pm 4.5ft 5s 4s 20 25 mph 1013.4mb 65f 60f
5:50pm 3.5ft 4s 4s 25 27 mph 1012.7mb 65f 58f
4:50pm 3.5ft 4s 4s 22 25 mph 1012mb 65f 57f
3:50pm 3ft 6s 4s 18 22 mph 1011.8mb 65f 56f
2:50pm 3.5ft 4s 5s 13 18 mph 1012mb 65f 55f
1:50pm 3.5ft 4s 5s 11 18 mph 1012.7mb 65f 54f
12:50pm 4ft 6s 5s 11 16 mph 1013.1mb 65f 53f
11:50am 3.5ft 6s 5s 11 16 mph 1013.6mb 65f 53f
10:50am 4ft 6s 5s 13 18 mph 1013.6mb 65f 52f
9:50am 4ft 6s 5s 11 16 mph 1013.4mb 65f 53f
8:50am 4ft 5s 5s 13 18 mph 1013mb 65f 53f
7:50am 4ft 6s 5s 13 18 mph 1012mb 65f 53f
6:50am 4ft 9s 5s 13 16 mph 1011.3mb 65f 54f